createdAt,value
2018-09-20T00:00:15.641Z,5.65
2018-09-20T00:02:43.908Z,6.35
2018-09-20T00:05:12.114Z,6.17
2018-09-20T00:07:40.366Z,6.53
2018-09-20T00:10:08.691Z,7.10
2018-09-20T00:12:36.981Z,6.60
2018-09-20T00:15:05.263Z,6.20
2018-09-20T00:17:33.498Z,6.33
2018-09-20T00:20:01.819Z,6.87
2018-09-20T00:22:30.034Z,6.90
2018-09-20T00:24:58.360Z,5.73
2018-09-20T00:27:26.654Z,5.87
2018-09-20T00:29:55.025Z,5.50
2018-09-20T00:32:23.976Z,6.25
2018-09-20T00:34:52.289Z,5.80
2018-09-20T00:37:20.558Z,5.70
2018-09-20T00:39:48.901Z,5.50
2018-09-20T00:42:17.148Z,5.57
2018-09-20T00:44:45.435Z,5.85
2018-09-20T00:47:13.690Z,5.60
2018-09-20T00:49:42.002Z,6.10
2018-09-20T00:52:10.258Z,5.67
2018-09-20T00:54:38.559Z,5.80
2018-09-20T00:57:06.767Z,5.57
2018-09-20T00:59:35.007Z,5.67
2018-09-20T01:02:03.486Z,5.53
2018-09-20T01:04:31.713Z,6.10
2018-09-20T01:06:59.941Z,5.90
2018-09-20T01:09:28.160Z,6.17
2018-09-20T01:11:56.439Z,5.77
2018-09-20T01:14:24.651Z,5.97
2018-09-20T01:16:52.884Z,5.43
2018-09-20T01:19:21.106Z,5.50
2018-09-20T01:21:50.039Z,5.53
2018-09-20T01:24:18.293Z,6.20
2018-09-20T01:26:46.501Z,5.83
2018-09-20T01:29:14.739Z,5.77
2018-09-20T01:31:43.017Z,6.73
2018-09-20T01:34:11.225Z,6.63
2018-09-20T01:36:39.445Z,6.07
2018-09-20T01:39:11.022Z,6.33
2018-09-20T01:41:39.224Z,6.67
2018-09-20T01:44:07.482Z,6.57
2018-09-20T01:46:35.976Z,6.67
2018-09-20T01:49:04.245Z,7.20
2018-09-20T01:51:32.437Z,6.23
2018-09-20T01:54:00.716Z,6.30
2018-09-20T01:56:28.974Z,5.97
2018-09-20T01:58:57.206Z,6.40
2018-09-20T02:01:25.455Z,6.27
2018-09-20T02:03:53.682Z,6.23
2018-09-20T02:06:21.916Z,6.33
2018-09-20T02:08:50.233Z,6.30
2018-09-20T02:11:18.503Z,6.40
2018-09-20T02:13:46.732Z,7.13
2018-09-20T02:16:14.917Z,6.10
2018-09-20T02:18:43.070Z,7.00
2018-09-20T02:21:11.248Z,6.27
2018-09-20T02:23:39.463Z,7.10
2018-09-20T02:26:07.695Z,5.53
2018-09-20T02:28:35.855Z,6.03
2018-09-20T02:31:04.108Z,5.83
2018-09-20T02:33:32.910Z,6.77
2018-09-20T02:36:01.112Z,6.10
2018-09-20T02:38:29.339Z,6.43
2018-09-20T02:40:57.511Z,6.03
2018-09-20T02:43:25.754Z,6.53
2018-09-20T02:45:54.093Z,5.70
2018-09-20T02:48:22.465Z,6.00
2018-09-20T02:50:50.724Z,6.20
2018-09-20T02:53:18.920Z,6.47
2018-09-20T02:55:47.151Z,5.90
2018-09-20T02:58:15.419Z,6.40
2018-09-20T03:00:43.661Z,5.83
2018-09-20T03:03:11.891Z,5.73
2018-09-20T03:05:40.094Z,6.07
2018-09-20T03:08:08.341Z,6.53
2018-09-20T03:10:36.585Z,6.07
2018-09-20T03:13:04.814Z,6.63
2018-09-20T03:15:33.017Z,5.97
2018-09-20T03:18:01.321Z,5.93
2018-09-20T03:20:29.511Z,7.00
2018-09-20T03:22:57.795Z,7.03
2018-09-20T03:25:26.058Z,6.30
2018-09-20T03:27:54.272Z,6.47
2018-09-20T03:30:22.984Z,6.47
2018-09-20T03:32:51.206Z,6.17
2018-09-20T03:35:19.434Z,6.73
2018-09-20T03:37:47.655Z,6.20
2018-09-20T03:40:15.932Z,6.13
2018-09-20T03:42:44.153Z,6.87
2018-09-20T03:45:12.349Z,6.10
2018-09-20T03:47:40.577Z,5.93
2018-09-20T03:50:08.800Z,6.30
2018-09-20T03:52:37.015Z,6.77
2018-09-20T03:55:05.636Z,6.17
2018-09-20T03:57:33.972Z,6.57
2018-09-20T04:00:02.181Z,6.37
2018-09-20T04:02:30.415Z,6.43
2018-09-20T04:04:58.680Z,6.60
2018-09-20T04:07:27.019Z,6.70
2018-09-20T04:09:55.247Z,6.80
2018-09-20T04:12:23.468Z,6.20
2018-09-20T04:14:51.716Z,6.37
2018-09-20T04:17:19.939Z,6.10
2018-09-20T04:19:48.159Z,7.23
2018-09-20T04:22:16.346Z,5.80
2018-09-20T04:24:44.673Z,6.13
2018-09-20T04:27:12.984Z,6.03
2018-09-20T04:29:41.267Z,6.67
2018-09-20T04:32:09.509Z,5.73
2018-09-20T04:34:37.786Z,5.97
2018-09-20T04:37:06.145Z,6.40
2018-09-20T04:39:34.352Z,6.50
2018-09-20T04:42:02.578Z,6.07
2018-09-20T04:44:30.863Z,5.83
2018-09-20T04:46:59.110Z,6.43
2018-09-20T04:49:27.329Z,6.03
2018-09-20T04:51:55.531Z,6.33
2018-09-20T04:54:23.737Z,6.40
2018-09-20T04:56:52.868Z,6.67
2018-09-20T04:59:21.061Z,6.10
2018-09-20T05:01:49.245Z,5.87
2018-09-20T05:04:17.484Z,5.97
2018-09-20T05:06:45.706Z,6.27
2018-09-20T05:09:14.721Z,6.90
2018-09-20T05:11:43.579Z,7.03
2018-09-20T05:14:12.271Z,7.27
2018-09-20T05:16:41.261Z,6.93
2018-09-20T05:19:09.518Z,6.80
2018-09-20T05:21:37.888Z,7.17
2018-09-20T05:24:06.497Z,7.90
2018-09-20T05:26:34.687Z,7.70
2018-09-20T05:29:03.081Z,7.60
2018-09-20T05:31:31.395Z,7.53
2018-09-20T05:33:59.578Z,6.80
2018-09-20T05:36:28.333Z,7.50
2018-09-20T05:38:56.572Z,7.57
2018-09-20T05:41:24.866Z,8.80
2018-09-20T05:43:53.108Z,7.93
2018-09-20T05:46:21.445Z,7.50
2018-09-20T05:48:49.691Z,7.93
2018-09-20T05:51:17.932Z,7.93
2018-09-20T05:53:46.338Z,8.40
2018-09-20T05:56:14.537Z,7.80
2018-09-20T05:58:42.809Z,7.60
2018-09-20T06:01:11.067Z,7.17
2018-09-20T06:03:39.279Z,7.40
2018-09-20T06:06:07.508Z,7.60
2018-09-20T06:08:35.760Z,8.50
2018-09-20T06:11:03.968Z,7.37
2018-09-20T06:13:32.197Z,7.90
2018-09-20T06:16:00.482Z,7.60
2018-09-20T06:18:28.718Z,6.63
2018-09-20T06:20:56.917Z,7.27
2018-09-20T06:23:26.487Z,7.83
2018-09-20T06:25:54.725Z,7.03
2018-09-20T06:28:22.954Z,7.53
2018-09-20T06:30:51.167Z,7.30
2018-09-20T06:33:19.390Z,7.57
2018-09-20T06:35:47.629Z,7.60
2018-09-20T06:38:15.894Z,7.03
2018-09-20T06:40:44.081Z,7.40
2018-09-20T06:43:12.269Z,6.87
2018-09-20T06:45:40.497Z,6.90
2018-09-20T06:48:08.660Z,7.17
2018-09-20T06:50:37.717Z,6.35
2018-09-20T06:53:05.977Z,6.65
2018-09-20T06:55:34.292Z,7.17
2018-09-20T06:58:02.511Z,6.67
2018-09-20T07:00:30.799Z,6.15
2018-09-20T07:02:59.154Z,5.40
2018-09-20T07:05:27.328Z,6.65
2018-09-20T07:07:55.558Z,5.60
2018-09-20T07:10:23.732Z,5.83
2018-09-20T07:12:52.008Z,6.28
2018-09-20T07:15:20.251Z,5.95
2018-09-20T07:17:48.543Z,6.12
2018-09-20T07:20:16.826Z,6.08
2018-09-20T07:22:45.119Z,5.60
2018-09-20T07:25:13.411Z,5.67
2018-09-20T07:27:41.594Z,5.50
2018-09-20T07:30:09.877Z,4.85
2018-09-20T07:32:38.098Z,5.08
2018-09-20T07:35:06.568Z,5.03
2018-09-20T07:37:34.787Z,4.87
2018-09-20T07:40:03.192Z,5.15
2018-09-20T07:42:31.464Z,5.22
2018-09-20T07:44:59.752Z,5.35
2018-09-20T07:47:27.949Z,4.60
2018-09-20T07:49:56.246Z,4.70
2018-09-20T07:52:24.463Z,4.37
2018-09-20T07:54:52.700Z,5.20
2018-09-20T07:57:20.871Z,4.47
2018-09-20T07:59:49.114Z,5.15
2018-09-20T08:02:17.320Z,4.45
2018-09-20T08:04:45.531Z,4.35
2018-09-20T08:07:13.830Z,4.53
2018-09-20T08:09:42.813Z,3.80
2018-09-20T08:12:11.095Z,4.15
2018-09-20T08:14:39.309Z,4.47
2018-09-20T08:17:07.498Z,4.37
2018-09-20T08:19:35.912Z,4.50
2018-09-20T08:22:04.157Z,4.53
2018-09-20T08:24:32.401Z,4.22
2018-09-20T08:27:00.584Z,4.37
2018-09-20T08:29:28.804Z,4.22
2018-09-20T08:31:57.153Z,3.67
2018-09-20T08:34:25.367Z,3.60
2018-09-20T08:36:54.615Z,4.65
2018-09-20T08:39:22.873Z,4.08
2018-09-20T08:41:51.120Z,3.98
2018-09-20T08:44:19.319Z,4.72
2018-09-20T08:46:47.658Z,3.83
2018-09-20T08:49:16.053Z,3.92
2018-09-20T08:51:44.371Z,4.12
2018-09-20T08:54:12.571Z,3.55
2018-09-20T08:56:40.887Z,3.80
2018-09-20T08:59:09.089Z,3.27
2018-09-20T09:01:37.290Z,3.80
2018-09-20T09:04:05.534Z,5.33
2018-09-20T09:06:33.716Z,3.40
2018-09-20T09:09:01.880Z,3.87
2018-09-20T09:11:30.111Z,3.92
2018-09-20T09:13:58.383Z,3.58
2018-09-20T09:16:26.632Z,3.37
2018-09-20T09:18:54.841Z,4.10
2018-09-20T09:21:23.058Z,3.62
2018-09-20T09:23:51.339Z,5.03
2018-09-20T09:26:19.543Z,4.30
2018-09-20T09:28:47.812Z,3.90
2018-09-20T09:31:16.071Z,3.92
2018-09-20T09:33:44.284Z,3.02
2018-09-20T09:36:12.467Z,3.55
2018-09-20T09:38:41.101Z,4.03
2018-09-20T09:41:09.379Z,3.98
2018-09-20T09:43:37.603Z,3.33
2018-09-20T09:46:05.837Z,3.80
2018-09-20T09:48:34.874Z,3.42
2018-09-20T09:51:03.106Z,4.42
2018-09-20T09:53:31.305Z,4.20
2018-09-20T09:55:59.528Z,3.85
2018-09-20T09:58:27.960Z,4.53
2018-09-20T10:00:56.278Z,3.45
2018-09-20T10:03:24.490Z,3.77
2018-09-20T10:05:52.791Z,4.65
2018-09-20T10:08:21.079Z,3.33
2018-09-20T10:10:49.369Z,6.20
2018-09-20T10:13:17.613Z,6.28
2018-09-20T10:15:45.878Z,3.90
2018-09-20T10:18:14.116Z,3.75
2018-09-20T10:20:42.357Z,4.45
2018-09-20T10:23:11.232Z,3.55
2018-09-20T10:25:39.542Z,4.22
2018-09-20T10:28:07.870Z,4.12
2018-09-20T10:30:36.202Z,3.75
2018-09-20T10:33:04.399Z,5.40
2018-09-20T10:35:32.628Z,4.10
2018-09-20T10:38:01.006Z,3.30
2018-09-20T10:40:29.259Z,5.00
2018-09-20T10:42:57.573Z,3.70
2018-09-20T10:45:25.834Z,3.35
2018-09-20T10:47:54.084Z,3.80
2018-09-20T10:50:22.300Z,5.83
2018-09-20T10:52:50.558Z,3.83
2018-09-20T10:55:18.766Z,3.65
2018-09-20T10:57:47.355Z,3.58
2018-09-20T11:00:15.591Z,3.70
2018-09-20T11:02:43.782Z,3.60
2018-09-20T11:05:12.016Z,4.12
2018-09-20T11:07:40.557Z,3.58
2018-09-20T11:10:08.807Z,3.77
2018-09-20T11:12:37.139Z,3.30
2018-09-20T11:15:05.852Z,3.25
2018-09-20T11:17:34.114Z,3.45
2018-09-20T11:20:02.360Z,3.65
2018-09-20T11:22:30.604Z,3.70
2018-09-20T11:24:58.842Z,4.50
2018-09-20T11:27:27.134Z,3.77
2018-09-20T11:29:55.389Z,3.47
2018-09-20T11:32:24.653Z,3.83
2018-09-20T11:34:52.928Z,3.37
2018-09-20T11:37:21.153Z,3.70
2018-09-20T11:39:49.360Z,3.30
2018-09-20T11:42:17.569Z,3.70
2018-09-20T11:44:45.816Z,3.60
2018-09-20T11:47:14.031Z,4.28
2018-09-20T11:49:42.285Z,3.60
2018-09-20T11:52:10.471Z,3.22
2018-09-20T11:54:38.662Z,3.98
2018-09-20T11:57:06.903Z,3.90
2018-09-20T11:59:35.173Z,3.12
2018-09-20T12:02:03.912Z,3.72
2018-09-20T12:04:32.066Z,3.17
2018-09-20T12:07:00.279Z,3.72
2018-09-20T12:09:28.456Z,3.45
2018-09-20T12:11:56.791Z,3.80
2018-09-20T12:14:25.038Z,3.90
2018-09-20T12:16:53.231Z,3.40
2018-09-20T12:19:21.464Z,3.08
2018-09-20T12:21:49.869Z,3.30
2018-09-20T12:24:18.065Z,3.35
2018-09-20T12:26:46.344Z,3.35
2018-09-20T12:29:14.579Z,3.40
2018-09-20T12:31:42.960Z,3.27
2018-09-20T12:34:11.111Z,3.47
2018-09-20T12:36:39.352Z,4.10
2018-09-20T12:39:09.951Z,3.22
2018-09-20T12:41:38.238Z,3.52
2018-09-20T12:44:06.712Z,3.20
2018-09-20T12:46:35.069Z,3.00
2018-09-20T12:49:03.544Z,2.90
2018-09-20T12:51:31.926Z,3.35
2018-09-20T12:54:00.274Z,3.42
2018-09-20T12:56:28.483Z,2.80
2018-09-20T12:58:56.717Z,3.52
2018-09-20T13:01:25.030Z,3.12
2018-09-20T13:03:53.320Z,3.42
2018-09-20T13:06:21.573Z,2.50
2018-09-20T13:08:49.840Z,2.75
2018-09-20T13:11:18.652Z,3.10
2018-09-20T13:13:47.759Z,3.05
2018-09-20T13:16:16.054Z,2.85
2018-09-20T13:18:44.341Z,2.70
2018-09-20T13:21:12.670Z,3.33
2018-09-20T13:23:41.016Z,3.10
2018-09-20T13:26:09.557Z,3.12
2018-09-20T13:28:37.805Z,3.15
2018-09-20T13:31:06.065Z,2.90
2018-09-20T13:33:34.305Z,4.40
2018-09-20T13:36:02.535Z,3.02
2018-09-20T13:38:30.798Z,2.55
2018-09-20T13:40:59.073Z,2.85
2018-09-20T13:43:27.401Z,2.22
2018-09-20T13:45:55.653Z,3.20
2018-09-20T13:48:23.931Z,2.70
2018-09-20T13:50:52.273Z,2.67
2018-09-20T13:53:20.811Z,2.83
2018-09-20T13:55:49.092Z,5.20
2018-09-20T13:58:17.374Z,3.33
2018-09-20T14:00:45.654Z,3.12
2018-09-20T14:03:13.916Z,6.85
2018-09-20T14:05:42.192Z,3.17
2018-09-20T14:08:10.480Z,3.08
2018-09-20T14:10:38.734Z,3.05
2018-09-20T14:13:07.124Z,2.90
2018-09-20T14:15:35.440Z,2.90
2018-09-20T14:18:03.649Z,3.10
2018-09-20T14:20:31.927Z,2.70
2018-09-20T14:23:00.157Z,2.60
2018-09-20T14:25:28.428Z,2.25
2018-09-20T14:27:56.849Z,2.92
2018-09-20T14:30:25.107Z,3.15
2018-09-20T14:32:53.403Z,3.00
2018-09-20T14:35:23.026Z,3.08
2018-09-20T14:37:51.286Z,3.10
2018-09-20T14:40:19.557Z,2.80
2018-09-20T14:42:47.856Z,2.90
2018-09-20T14:45:16.238Z,2.98
2018-09-20T14:47:44.504Z,2.70
2018-09-20T14:50:12.712Z,2.67
2018-09-20T14:52:41.255Z,3.02
2018-09-20T14:55:09.935Z,3.15
2018-09-20T14:57:38.182Z,3.00
2018-09-20T15:00:06.520Z,2.83
2018-09-20T15:02:34.836Z,2.33
2018-09-20T15:05:03.265Z,2.95
2018-09-20T15:07:31.531Z,2.95
2018-09-20T15:09:59.774Z,3.05
2018-09-20T15:12:28.063Z,3.05
2018-09-20T15:14:56.356Z,3.20
2018-09-20T15:17:24.708Z,3.02
2018-09-20T15:19:53.093Z,2.60
2018-09-20T15:22:21.404Z,2.90
2018-09-20T15:24:49.685Z,2.60
2018-09-20T15:27:17.932Z,2.98
2018-09-20T15:29:46.765Z,2.65
2018-09-20T15:32:14.999Z,2.90
2018-09-20T15:34:43.333Z,2.37
2018-09-20T15:37:11.606Z,2.70
2018-09-20T15:39:39.828Z,3.37
2018-09-20T15:42:08.115Z,3.20
2018-09-20T15:44:36.426Z,5.72
2018-09-20T15:47:04.732Z,2.90
2018-09-20T15:49:33.122Z,2.80
2018-09-20T15:52:01.402Z,2.77
2018-09-20T15:54:30.055Z,2.80
2018-09-20T15:56:58.440Z,2.72
2018-09-20T15:59:26.732Z,2.75
2018-09-20T16:01:55.036Z,2.90
2018-09-20T16:04:23.351Z,2.80
2018-09-20T16:06:51.592Z,2.60
2018-09-20T16:09:19.881Z,2.90
2018-09-20T16:11:48.180Z,2.60
2018-09-20T16:14:16.498Z,2.55
2018-09-20T16:16:44.722Z,2.87
2018-09-20T16:19:13.007Z,3.15
2018-09-20T16:21:41.819Z,3.10
2018-09-20T16:24:10.050Z,2.70
2018-09-20T16:26:38.319Z,3.25
2018-09-20T16:29:18.412Z,2.60
2018-09-20T16:32:33.190Z,2.60
2018-09-20T16:36:15.663Z,2.62
2018-09-20T16:38:52.664Z,2.65
2018-09-20T16:41:27.997Z,2.55
2018-09-20T16:43:56.321Z,2.60
2018-09-20T16:46:24.619Z,2.30
2018-09-20T16:48:53.041Z,2.90
2018-09-20T16:51:21.872Z,2.70
2018-09-20T16:53:50.201Z,2.65
2018-09-20T16:56:18.477Z,2.67
2018-09-20T16:58:50.040Z,3.72
2018-09-20T17:01:18.990Z,3.00
2018-09-20T17:03:47.433Z,3.50
2018-09-20T17:06:16.016Z,2.77
2018-09-20T17:08:44.373Z,2.95
2018-09-20T17:11:12.686Z,2.80
2018-09-20T17:13:40.953Z,2.87
2018-09-20T17:16:09.247Z,2.72
2018-09-20T17:18:37.537Z,2.30
2018-09-20T17:21:05.941Z,3.15
2018-09-20T17:23:34.220Z,2.75
2018-09-20T17:26:02.634Z,2.87
2018-09-20T17:28:31.261Z,2.50
2018-09-20T17:30:59.560Z,3.12
2018-09-20T17:33:27.836Z,2.83
2018-09-20T17:35:56.430Z,3.17
2018-09-20T17:38:25.311Z,2.90
2018-09-20T17:40:59.269Z,2.95
2018-09-20T17:43:34.136Z,4.58
2018-09-20T17:46:02.619Z,2.80
2018-09-20T17:48:30.864Z,2.92
2018-09-20T17:50:59.784Z,3.37
2018-09-20T17:53:28.526Z,3.17
2018-09-20T17:55:57.563Z,2.72
2018-09-20T17:58:26.824Z,2.77
2018-09-20T18:00:55.101Z,2.52
2018-09-20T18:03:23.343Z,2.92
2018-09-20T18:05:51.573Z,2.87
2018-09-20T18:08:19.881Z,2.87
2018-09-20T18:10:48.186Z,2.83
2018-09-20T18:13:16.489Z,3.40
2018-09-20T18:15:44.809Z,3.00
2018-09-20T18:18:13.613Z,3.00
2018-09-20T18:20:42.082Z,3.25
2018-09-20T18:23:10.378Z,3.50
2018-09-20T18:25:38.677Z,2.95
2018-09-20T18:28:07.002Z,3.30
2018-09-20T18:30:35.388Z,3.27
2018-09-20T18:33:03.686Z,3.45
2018-09-20T18:35:32.078Z,3.47
2018-09-20T18:38:00.403Z,3.35
2018-09-20T18:40:28.722Z,3.80
2018-09-20T18:42:57.030Z,4.83
2018-09-20T18:45:25.483Z,4.72
2018-09-20T18:47:53.778Z,4.90
2018-09-20T18:50:22.019Z,6.25
2018-09-20T18:52:50.412Z,6.47
2018-09-20T18:55:18.767Z,4.33
2018-09-20T18:57:47.085Z,4.08
2018-09-20T19:00:15.288Z,4.05
2018-09-20T19:02:43.560Z,3.72
2018-09-20T19:05:11.829Z,4.45
2018-09-20T19:07:40.096Z,4.75
2018-09-20T19:10:08.321Z,5.47
2018-09-20T19:12:37.637Z,4.87
2018-09-20T19:15:07.470Z,4.92
2018-09-20T19:17:35.754Z,4.00
2018-09-20T19:20:04.421Z,3.42
2018-09-20T19:22:32.665Z,3.60
2018-09-20T19:25:00.983Z,4.17
2018-09-20T19:27:29.307Z,3.70
2018-09-20T19:29:57.661Z,4.28
2018-09-20T19:32:26.110Z,3.90
2018-09-20T19:34:54.368Z,3.65
2018-09-20T19:37:22.662Z,3.52
2018-09-20T19:39:51.049Z,3.58
2018-09-20T19:42:19.309Z,3.27
2018-09-20T19:44:47.642Z,3.42
2018-09-20T19:47:15.982Z,6.55
2018-09-20T19:49:44.264Z,3.65
2018-09-20T19:52:12.702Z,3.42
2018-09-20T19:54:40.965Z,3.70
2018-09-20T19:57:09.484Z,3.85
2018-09-20T19:59:37.956Z,4.30
2018-09-20T20:02:06.542Z,4.28
2018-09-20T20:04:35.060Z,3.60
2018-09-20T20:07:03.392Z,3.15
2018-09-20T20:09:31.937Z,3.77
2018-09-20T20:12:00.255Z,4.53
2018-09-20T20:14:28.532Z,4.10
2018-09-20T20:16:56.793Z,5.08
2018-09-20T20:19:25.248Z,4.42
2018-09-20T20:21:53.707Z,4.30
2018-09-20T20:24:21.997Z,3.95
2018-09-20T20:26:50.387Z,4.10
2018-09-20T20:29:18.630Z,4.65
2018-09-20T20:31:46.900Z,4.03
2018-09-20T20:34:15.207Z,3.72
2018-09-20T20:36:43.517Z,3.87
2018-09-20T20:39:11.802Z,4.10
2018-09-20T20:41:40.139Z,4.75
2018-09-20T20:44:08.395Z,5.78
2018-09-20T20:46:36.623Z,4.47
2018-09-20T20:49:04.883Z,3.70
2018-09-20T20:51:33.188Z,3.75
2018-09-20T20:54:01.482Z,3.75
2018-09-20T20:56:29.816Z,4.30
2018-09-20T20:58:58.209Z,4.58
2018-09-20T21:01:26.426Z,4.70
2018-09-20T21:03:54.733Z,4.97
2018-09-20T21:06:23.023Z,4.95
2018-09-20T21:08:51.330Z,4.53
2018-09-20T21:11:19.616Z,5.10
2018-09-20T21:13:47.863Z,4.87
2018-09-20T21:16:16.084Z,4.37
2018-09-20T21:18:44.309Z,4.75
2018-09-20T21:21:12.620Z,5.35
2018-09-20T21:23:40.846Z,4.42
2018-09-20T21:26:09.197Z,4.08
2018-09-20T21:28:37.532Z,4.22
2018-09-20T21:31:06.289Z,3.47
2018-09-20T21:33:34.539Z,3.75
2018-09-20T21:36:02.804Z,4.00
2018-09-20T21:38:31.147Z,4.60
2018-09-20T21:40:59.588Z,5.30
2018-09-20T21:43:27.828Z,5.22
2018-09-20T21:45:56.094Z,5.67
2018-09-20T21:48:24.296Z,5.47
2018-09-20T21:50:52.525Z,5.55
2018-09-20T21:53:20.779Z,4.50
2018-09-20T21:55:49.058Z,4.65
2018-09-20T21:58:17.258Z,4.05
2018-09-20T22:00:45.926Z,4.67
2018-09-20T22:03:14.206Z,3.80
2018-09-20T22:05:42.439Z,4.10
2018-09-20T22:08:10.691Z,4.20
2018-09-20T22:10:38.992Z,4.10
2018-09-20T22:13:07.216Z,4.20
2018-09-20T22:15:35.461Z,4.55
2018-09-20T22:18:03.727Z,4.70
2018-09-20T22:20:31.941Z,4.60
2018-09-20T22:23:00.200Z,4.67
2018-09-20T22:25:28.493Z,4.70
2018-09-20T22:27:56.702Z,4.85
2018-09-20T22:30:24.943Z,4.78
2018-09-20T22:32:53.186Z,5.25
2018-09-20T22:35:51.969Z,5.25
2018-09-20T22:38:20.259Z,5.20
2018-09-20T22:40:48.535Z,4.97
2018-09-20T22:43:16.792Z,5.55
2018-09-20T22:45:45.055Z,4.83
2018-09-20T22:48:13.278Z,4.22
2018-09-20T22:50:41.515Z,4.08
2018-09-20T22:53:09.762Z,3.90
2018-09-20T22:55:37.979Z,3.72
2018-09-20T22:58:06.418Z,3.70
2018-09-20T23:00:34.933Z,3.30
2018-09-20T23:03:03.187Z,3.62
2018-09-20T23:05:31.448Z,3.75
2018-09-20T23:07:59.875Z,3.12
2018-09-20T23:10:28.090Z,4.22
2018-09-20T23:12:56.312Z,3.90
2018-09-20T23:15:24.586Z,3.80
2018-09-20T23:17:52.818Z,3.95
2018-09-20T23:20:21.073Z,4.05
2018-09-20T23:22:49.326Z,4.85
2018-09-20T23:25:17.644Z,5.55
2018-09-20T23:27:45.875Z,5.83
2018-09-20T23:30:14.125Z,6.25
2018-09-20T23:32:42.352Z,5.65
2018-09-20T23:35:10.582Z,5.65
2018-09-20T23:37:38.788Z,4.80
2018-09-20T23:40:06.993Z,4.28
2018-09-20T23:42:35.210Z,4.62
2018-09-20T23:45:03.463Z,4.15
2018-09-20T23:47:31.716Z,4.33
2018-09-20T23:49:59.964Z,4.00
2018-09-20T23:52:28.259Z,3.25
2018-09-20T23:54:56.527Z,3.65
2018-09-20T23:57:24.775Z,4.25
2018-09-20T23:59:53.167Z,3.95
